Time;durP1;ratioP1;P1;durP2;ratioP2;P2;SDS_P1;SDS_P2;PMS_P1;PMS_P2;Temp;Humidity;BMP_temperature;BMP_pressure;BME280_temperature;BME280_humidity;BME280_pressure;Samples;Min_cycle;Max_cycle;Signal;HPM_P1;HPM_P2
2023/01/08 00:01:25;;;;;;;23.57;11.83;;;;;;;1.65;74.89;101489.77;123775;1099;104268;-85
2023/01/08 00:03:56;;;;;;;26.60;12.23;;;;;;;1.63;75.30;101489.63;123831;1099;104267;-82
2023/01/08 00:06:27;;;;;;;24.97;11.70;;;;;;;1.63;75.04;101492.22;123838;1099;104294;-84
2023/01/08 00:09:01;;;;;;;26.37;11.77;;;;;;;1.62;75.04;101487.81;123792;1099;104344;-84
2023/01/08 00:11:35;;;;;;;25.27;12.43;;;;;;;1.61;75.73;101492.09;123735;1099;104361;-83
2023/01/08 00:14:06;;;;;;;26.83;12.07;;;;;;;1.60;75.53;101491.95;123741;1099;104626;-85
2023/01/08 00:16:38;;;;;;;25.97;11.83;;;;;;;1.57;75.74;101502.96;123825;1099;104251;-83
2023/01/08 00:19:10;;;;;;;25.00;11.73;;;;;;;1.53;75.45;101508.63;123760;1102;104274;-84
2023/01/08 00:21:41;;;;;;;26.33;11.90;;;;;;;1.49;75.35;101511.70;123734;1102;104301;-84
2023/01/08 00:24:13;;;;;;;27.57;12.33;;;;;;;1.48;75.61;101512.50;123733;1101;104349;-85
2023/01/08 00:26:44;;;;;;;27.50;12.77;;;;;;;1.47;75.62;101508.09;123839;1099;104242;-84
2023/01/08 00:29:15;;;;;;;23.97;11.70;;;;;;;1.44;75.49;101507.81;123738;1102;104284;-83
2023/01/08 00:31:47;;;;;;;28.43;12.17;;;;;;;1.45;75.55;101504.47;123803;1102;104251;-84
2023/01/08 00:34:21;;;;;;;27.23;12.47;;;;;;;1.46;76.16;101500.19;123780;1102;104708;-85
2023/01/08 00:36:52;;;;;;;27.47;12.70;;;;;;;1.44;76.20;101500.95;123715;1102;104274;-84
2023/01/08 00:39:23;;;;;;;29.10;13.25;;;;;;;1.44;75.93;101502.64;123811;1102;104248;-83
2023/01/08 00:41:54;;;;;;;27.23;12.53;;;;;;;1.43;75.76;101499.16;123740;1102;104226;-85
2023/01/08 00:44:25;;;;;;;27.53;12.63;;;;;;;1.42;77.57;101494.75;123818;1100;104319;-84
2023/01/08 00:46:57;;;;;;;27.67;12.77;;;;;;;1.43;76.09;101496.57;123856;1100;104380;-85
2023/01/08 00:49:28;;;;;;;32.83;13.23;;;;;;;1.46;76.39;101497.60;123813;1102;104246;-83
2023/01/08 00:51:59;;;;;;;31.97;14.80;;;;;;;1.44;76.30;101503.54;123814;1102;104380;-84
2023/01/08 00:54:30;;;;;;;32.10;13.00;;;;;;;1.43;75.96;101509.50;123746;1102;104272;-85
2023/01/08 00:57:02;;;;;;;29.87;13.93;;;;;;;1.45;76.47;101507.05;123871;1100;104361;-84
2023/01/08 00:59:33;;;;;;;31.15;14.35;;;;;;;1.45;76.06;101499.30;123774;1099;104360;-82
2023/01/08 01:02:04;;;;;;;32.20;15.43;;;;;;;1.46;76.43;101502.78;123803;1099;104302;-85
2023/01/08 01:04:35;;;;;;;32.17;15.00;;;;;;;1.43;77.17;101504.33;123803;1099;104293;-83
2023/01/08 01:07:07;;;;;;;34.45;15.45;;;;;;;1.42;76.86;101488.67;123759;1099;109486;-84
2023/01/08 01:09:38;;;;;;;34.63;16.00;;;;;;;1.43;76.80;101493.05;123757;1099;104322;-83
2023/01/08 01:12:10;;;;;;;31.77;14.73;;;;;;;1.46;76.43;101500.19;123743;1099;104319;-83
2023/01/08 01:14:41;;;;;;;34.90;14.80;;;;;;;1.47;76.56;101494.26;123746;1099;104252;-83
2023/01/08 01:17:13;;;;;;;39.30;15.80;;;;;;;1.46;76.62;101497.60;123831;1099;104379;-83
2023/01/08 01:19:45;;;;;;;34.07;14.50;;;;;;;1.43;77.53;101487.88;123803;1099;104239;-84
2023/01/08 01:22:16;;;;;;;32.57;15.23;;;;;;;1.43;77.01;101493.05;123786;1099;104271;-83
2023/01/08 01:24:47;;;;;;;32.70;16.03;;;;;;;1.44;76.42;101489.71;123678;1102;104280;-83
2023/01/08 01:27:18;;;;;;;30.97;14.37;;;;;;;1.47;77.34;101489.08;123800;1100;104376;-85
2023/01/08 01:29:50;;;;;;;33.13;13.97;;;;;;;1.48;77.39;101477.94;123796;1102;104197;-83
2023/01/08 01:32:21;;;;;;;38.97;16.40;;;;;;;1.46;77.43;101484.67;123783;1102;104415;-84
2023/01/08 01:34:52;;;;;;;32.37;14.10;;;;;;;1.43;78.63;101483.64;123768;1102;104226;-82
2023/01/08 01:37:23;;;;;;;32.50;14.43;;;;;;;1.40;78.27;101485.95;123801;1099;104504;-83
2023/01/08 01:39:55;;;;;;;32.87;14.73;;;;;;;1.41;77.12;101494.61;123733;1099;104348;-83
2023/01/08 01:42:43;;;;;;;33.17;14.90;;;;;;;1.40;77.94;101496.30;123860;1099;104219;-83
2023/01/08 01:45:21;;;;;;;29.90;14.70;;;;;;;1.39;78.04;101485.82;123659;1099;104331;-85
2023/01/08 01:47:57;;;;;;;33.50;15.20;;;;;;;1.40;78.13;101495.38;123818;1099;104268;-83
2023/01/08 01:50:32;;;;;;;30.55;13.85;;;;;;;1.40;78.46;101491.13;123877;1099;104370;-82
2023/01/08 01:53:09;;;;;;;30.63;14.00;;;;;;;1.39;78.73;101496.16;123747;1099;104389;-84
2023/01/08 01:55:43;;;;;;;33.63;15.40;;;;;;;1.37;78.31;101501.20;123919;1099;104169;-85
2023/01/08 01:58:17;;;;;;;32.85;14.50;;;;;;;1.36;78.98;101495.89;124015;1099;104224;-83
2023/01/08 02:00:47;;;;;;;;;;;;;;;1.34;79.92;101495.76;123907;1099;104225;-82
2023/01/08 02:03:24;;;;;;;34.15;14.45;;;;;;;1.33;78.26;101500.80;123877;1099;104344;-84
2023/01/08 02:06:00;;;;;;;31.97;14.20;;;;;;;1.28;79.02;101492.62;123763;1099;104242;-84
2023/01/08 02:08:39;;;;;;;29.80;14.30;;;;;;;1.22;80.03;101494.67;123768;1099;104239;-81
2023/01/08 02:11:15;;;;;;;30.70;13.73;;;;;;;1.21;78.82;101490.25;123872;1099;104251;-81
2023/01/08 02:13:54;;;;;;;32.47;14.93;;;;;;;1.18;79.65;101505.50;123958;1099;104348;-84
2023/01/08 02:16:34;;;;;;;30.73;12.67;;;;;;;1.16;79.14;101501.87;123797;1099;104216;-82
2023/01/08 02:19:16;;;;;;;27.73;11.93;;;;;;;1.15;79.38;101494.87;123854;1098;104248;-82
2023/01/08 02:22:01;;;;;;;30.43;12.70;;;;;;;1.11;79.67;101492.78;123848;1099;104313;-84
2023/01/08 02:24:47;;;;;;;32.17;13.73;;;;;;;1.08;79.35;101496.91;123676;1099;104318;-83
2023/01/08 02:27:21;;;;;;;28.30;12.67;;;;;;;1.07;79.44;101495.09;123839;1098;104328;-84
2023/01/08 02:29:53;;;;;;;30.43;14.20;;;;;;;1.06;79.39;101501.05;123869;1099;104231;-83
2023/01/08 02:32:28;;;;;;;28.43;13.30;;;;;;;1.08;79.21;101502.09;123809;1099;104348;-83
2023/01/08 02:34:59;;;;;;;32.63;14.73;;;;;;;1.08;79.38;101506.36;123744;1099;104270;-85
2023/01/08 02:37:31;;;;;;;31.20;14.87;;;;;;;1.04;79.35;101512.02;123773;1099;104347;-81
2023/01/08 02:40:12;;;;;;;31.30;14.03;;;;;;;0.95;79.44;101517.28;123741;1098;104270;-83
2023/01/08 02:42:51;;;;;;;29.33;13.90;;;;;;;0.89;79.21;101506.39;123740;1099;104370;-84
2023/01/08 02:45:35;;;;;;;28.87;13.70;;;;;;;0.83;79.41;101504.14;123684;1099;104278;-85
2023/01/08 02:48:13;;;;;;;31.97;14.20;;;;;;;0.73;79.48;101503.17;123786;1099;104251;-83
2023/01/08 02:50:49;;;;;;;30.80;14.43;;;;;;;0.69;78.84;101505.47;123811;1099;104198;-83
2023/01/08 02:53:24;;;;;;;26.57;11.77;;;;;;;0.66;79.83;101518.11;123832;1099;104245;-84
2023/01/08 02:55:58;;;;;;;28.90;13.47;;;;;;;0.54;79.60;101512.71;123828;1099;104297;-84
2023/01/08 02:58:33;;;;;;;32.17;13.20;;;;;;;0.49;81.14;101516.55;123785;1099;104521;-83
2023/01/08 03:01:07;;;;;;;28.13;12.77;;;;;;;0.48;79.65;101519.00;123687;1099;104331;-84
2023/01/08 03:03:42;;;;;;;29.53;13.83;;;;;;;0.47;79.31;101517.20;123744;1099;104318;-84
2023/01/08 03:06:13;;;;;;;;;;;;;;;0.45;80.22;101519.64;123814;1099;104255;-83
2023/01/08 03:08:48;;;;;;;29.30;13.17;;;;;;;0.45;79.38;101521.30;123772;1099;104489;-84
2023/01/08 03:11:22;;;;;;;30.37;14.43;;;;;;;0.46;79.69;101533.45;123792;1099;104270;-82
2023/01/08 03:13:57;;;;;;;30.15;13.53;;;;;;;0.43;79.06;101526.32;123772;1099;104259;-83
2023/01/08 03:16:34;;;;;;;31.60;12.80;;;;;;;0.39;79.46;101518.14;123833;1099;104254;-84
2023/01/08 03:19:11;;;;;;;28.57;12.60;;;;;;;0.33;80.35;101516.82;123746;1099;104268;-82
2023/01/08 03:21:45;;;;;;;26.93;11.80;;;;;;;0.29;79.69;101527.62;123796;1098;104399;-84
2023/01/08 03:24:21;;;;;;;29.55;13.28;;;;;;;0.26;79.79;101518.69;123671;1099;104245;-84
2023/01/08 03:26:56;;;;;;;29.73;12.67;;;;;;;0.24;80.08;101510.80;123805;1099;104268;-83
2023/01/08 03:29:28;;;;;;;29.80;13.40;;;;;;;0.20;79.54;101519.02;123810;1099;104172;-82
2023/01/08 03:32:03;;;;;;;30.70;13.40;;;;;;;0.17;79.98;101524.82;123737;1100;104179;-85
2023/01/08 03:34:38;;;;;;;33.30;13.67;;;;;;;0.13;79.74;101516.64;123741;1099;104383;-83
2023/01/08 03:37:11;;;;;;;34.10;14.10;;;;;;;0.09;80.36;101525.75;123697;1102;104278;-83
2023/01/08 03:39:47;;;;;;;29.20;13.25;;;;;;;0.08;80.45;101521.37;123859;1099;104353;-84
2023/01/08 03:42:20;;;;;;;27.97;12.93;;;;;;;0.02;80.18;101523.38;123662;1099;104236;-85
2023/01/08 03:44:51;;;;;;;28.63;13.10;;;;;;;0.02;79.84;101527.61;123745;1099;104278;-83
2023/01/08 03:47:25;;;;;;;29.47;13.27;;;;;;;-0.01;79.45;101529.14;123787;1099;104268;-82
2023/01/08 03:50:00;;;;;;;30.55;14.00;;;;;;;-0.02;79.92;101523.84;123697;1098;104387;-83
2023/01/08 03:52:32;;;;;;;31.73;14.20;;;;;;;-0.02;80.36;101532.52;123662;1099;104364;-83
2023/01/08 03:55:04;;;;;;;28.40;14.20;;;;;;;-0.03;80.02;101522.95;123819;1099;104252;-82
2023/01/08 03:57:35;;;;;;;30.53;13.50;;;;;;;-0.05;81.09;101524.48;123767;1099;104175;-83
2023/01/08 04:00:09;;;;;;;30.30;14.00;;;;;;;-0.08;80.15;101539.67;123738;1099;104616;-83
2023/01/08 04:02:42;;;;;;;30.20;13.37;;;;;;;-0.07;80.64;101538.89;123872;1099;104248;-82
2023/01/08 04:05:13;;;;;;;31.93;14.40;;;;;;;-0.10;80.38;101532.54;123765;1099;104256;-83
2023/01/08 04:07:44;;;;;;;27.90;12.43;;;;;;;-0.12;81.07;101534.08;123762;1098;104297;-83
2023/01/08 04:10:15;;;;;;;28.97;14.10;;;;;;;-0.16;80.43;101532.86;123827;1099;104300;-82
2023/01/08 04:12:47;;;;;;;26.40;11.53;;;;;;;-0.15;80.06;101524.36;123755;1099;104658;-83
2023/01/08 04:15:18;;;;;;;28.93;13.37;;;;;;;-0.15;80.43;101533.78;124177;1099;104350;-83
2023/01/08 04:17:49;;;;;;;27.80;13.20;;;;;;;-0.16;79.90;101532.86;124204;1099;104284;-82
2023/01/08 04:20:21;;;;;;;31.47;13.53;;;;;;;-0.17;79.98;101545.61;124006;1099;104265;-82
2023/01/08 04:22:52;;;;;;;29.70;13.50;;;;;;;-0.22;79.89;101538.36;124154;1099;104258;-84
2023/01/08 04:25:23;;;;;;;27.93;12.77;;;;;;;-0.23;80.73;101548.53;124130;1099;104363;-81
2023/01/08 04:27:54;;;;;;;27.30;12.63;;;;;;;-0.27;80.29;101554.15;124084;1099;104392;-83
2023/01/08 04:30:25;;;;;;;26.33;10.97;;;;;;;-0.35;81.20;101552.52;124177;1099;104309;-83
2023/01/08 04:32:56;;;;;;;28.47;12.67;;;;;;;-0.41;80.67;101550.24;124047;1099;104245;-85
2023/01/08 04:35:28;;;;;;;27.67;13.27;;;;;;;-0.44;80.21;101552.52;123783;1099;104386;-84
2023/01/08 04:37:59;;;;;;;29.43;13.47;;;;;;;-0.46;80.49;101552.37;123710;1099;104341;-83
2023/01/08 04:40:32;;;;;;;26.27;12.33;;;;;;;-0.46;80.32;101557.53;123793;1099;104274;-83
2023/01/08 04:43:03;;;;;;;27.93;12.27;;;;;;;-0.45;80.16;101555.86;123840;1098;104303;-82
2023/01/08 04:45:35;;;;;;;28.35;12.75;;;;;;;-0.46;80.83;101552.37;123876;1099;104743;-82
2023/01/08 04:48:09;;;;;;;28.00;12.55;;;;;;;-0.45;80.68;101554.20;123868;1098;104367;-82
2023/01/08 04:50:40;;;;;;;28.83;13.33;;;;;;;-0.41;80.42;101556.30;123996;1099;104359;-84
2023/01/08 04:53:11;;;;;;;27.57;12.43;;;;;;;-0.44;80.73;101561.16;124024;1099;104299;-83
2023/01/08 04:55:42;;;;;;;29.40;12.77;;;;;;;-0.46;80.69;101557.53;123775;1100;104274;-83
2023/01/08 04:58:13;;;;;;;31.37;13.70;;;;;;;-0.44;80.73;101562.84;123939;1099;104223;-83
2023/01/08 05:00:45;;;;;;;28.73;12.00;;;;;;;-0.46;81.46;101564.38;123718;1099;104293;-82
2023/01/08 05:03:16;;;;;;;26.97;12.27;;;;;;;-0.52;81.06;101567.25;123731;1099;104704;-83
2023/01/08 05:05:47;;;;;;;25.93;11.60;;;;;;;-0.56;81.33;101566.06;123718;1098;104380;-82
2023/01/08 05:08:18;;;;;;;29.10;12.95;;;;;;;-0.62;80.23;101572.30;123879;1099;104348;-83
2023/01/08 05:10:50;;;;;;;26.50;12.20;;;;;;;-0.63;81.52;101579.10;123712;1098;104322;-83
2023/01/08 05:13:21;;;;;;;27.07;11.97;;;;;;;-0.64;80.75;101579.88;124205;1099;104226;-83
2023/01/08 05:15:52;;;;;;;26.93;11.57;;;;;;;-0.65;81.36;101572.89;123891;1099;104306;-82
2023/01/08 05:18:23;;;;;;;26.07;11.70;;;;;;;-0.69;81.42;101559.56;124056;1099;104360;-81
2023/01/08 05:20:54;;;;;;;28.87;13.03;;;;;;;-0.74;81.91;101564.27;124006;1098;104269;-82
2023/01/08 05:23:26;;;;;;;23.43;10.63;;;;;;;-0.76;81.96;101576.10;124046;1099;104337;-83
2023/01/08 05:26:00;;;;;;;26.40;11.53;;;;;;;-0.78;81.64;101575.95;123983;1098;104268;-83
2023/01/08 05:28:31;;;;;;;28.73;13.00;;;;;;;-0.80;81.15;101572.29;123799;1099;104255;-82
2023/01/08 05:31:03;;;;;;;29.13;13.50;;;;;;;-0.79;81.34;101574.12;124012;1099;104257;-83
2023/01/08 05:33:34;;;;;;;30.17;13.27;;;;;;;-0.80;81.61;101577.45;123842;1099;104686;-82
2023/01/08 05:36:09;;;;;;;29.07;12.33;;;;;;;-0.80;81.42;101571.39;124191;1098;104268;-83
2023/01/08 05:38:40;;;;;;;27.33;12.63;;;;;;;-0.83;81.14;101574.57;123988;1099;104217;-81
2023/01/08 05:41:12;;;;;;;29.15;13.00;;;;;;;-0.85;81.61;101564.89;124198;1099;104728;-82
2023/01/08 05:43:43;;;;;;;28.87;12.73;;;;;;;-0.85;81.53;101567.47;124088;1099;104263;-82
2023/01/08 05:46:14;;;;;;;30.60;13.13;;;;;;;-0.93;81.33;101588.22;124084;1098;104268;-82
2023/01/08 05:48:45;;;;;;;27.70;12.03;;;;;;;-0.95;80.38;101582.02;124106;1098;104296;-81
2023/01/08 05:51:17;;;;;;;28.73;12.67;;;;;;;-0.98;81.21;101591.09;124004;1099;104242;-81
2023/01/08 05:53:48;;;;;;;31.47;13.17;;;;;;;-1.01;81.63;101588.20;123867;1099;104813;-83
2023/01/08 05:56:19;;;;;;;28.33;12.33;;;;;;;-1.00;80.32;101595.19;123761;1098;104213;-81
2023/01/08 05:58:53;;;;;;;31.80;13.40;;;;;;;-1.01;81.44;101601.09;123673;1102;104389;-81
2023/01/08 06:01:24;;;;;;;27.17;12.17;;;;;;;-1.02;81.34;101600.19;123717;1099;104236;-81
2023/01/08 06:03:57;;;;;;;30.23;12.83;;;;;;;-1.01;81.29;101604.59;124099;1099;104376;-81
2023/01/08 06:06:29;;;;;;;30.10;12.30;;;;;;;-1.03;80.86;101603.52;124131;1099;104251;-80
2023/01/08 06:09:00;;;;;;;31.03;13.07;;;;;;;-1.04;81.61;101609.45;124083;1099;104303;-81
2023/01/08 06:11:31;;;;;;;29.23;12.77;;;;;;;-1.04;81.33;101609.45;124121;1099;104296;-80
2023/01/08 06:14:02;;;;;;;33.27;14.07;;;;;;;-1.07;82.04;101609.14;124177;1099;104264;-79
2023/01/08 06:16:34;;;;;;;32.43;12.37;;;;;;;-1.08;81.02;101609.88;124160;1099;104683;-81
2023/01/08 06:19:05;;;;;;;30.70;13.67;;;;;;;-1.09;81.39;101608.98;124082;1098;104435;-80
2023/01/08 06:21:36;;;;;;;28.83;13.70;;;;;;;-1.12;81.30;101608.68;123982;1099;104264;-81
2023/01/08 06:24:08;;;;;;;30.33;12.90;;;;;;;-1.16;81.62;101619.42;124186;1099;104264;-83
2023/01/08 06:26:40;;;;;;;33.33;13.47;;;;;;;-1.19;81.52;101610.48;123734;1099;104274;-82
2023/01/08 06:29:11;;;;;;;31.20;13.20;;;;;;;-1.17;81.74;101622.77;123760;1098;104681;-82
2023/01/08 06:31:42;;;;;;;33.27;13.23;;;;;;;-1.17;81.59;101625.35;123869;1099;104457;-81
2023/01/08 06:34:14;;;;;;;30.63;13.20;;;;;;;-1.14;81.65;101629.87;123808;1099;104268;-80
2023/01/08 06:36:45;;;;;;;30.30;13.67;;;;;;;-1.14;81.85;101627.30;124222;1099;104290;-81
2023/01/08 06:39:17;;;;;;;29.35;13.00;;;;;;;-1.12;81.18;101638.70;124194;1099;104341;-81
2023/01/08 06:41:48;;;;;;;28.37;12.77;;;;;;;-1.10;81.63;101630.34;124008;1099;104239;-81
2023/01/08 06:44:19;;;;;;;29.60;11.80;;;;;;;-1.10;81.58;101632.92;124029;1099;104248;-80
2023/01/08 06:46:50;;;;;;;30.80;12.27;;;;;;;-1.09;81.71;101631.27;123814;1099;104306;-81
2023/01/08 06:49:22;;;;;;;29.37;12.53;;;;;;;-1.12;81.47;101637.02;124051;1099;104319;-81
2023/01/08 06:51:53;;;;;;;29.07;11.93;;;;;;;-1.15;81.20;101641.86;124106;1099;104226;-81
2023/01/08 06:54:24;;;;;;;29.20;11.93;;;;;;;-1.15;81.42;101641.86;124180;1099;104332;-83
2023/01/08 06:56:56;;;;;;;27.90;11.90;;;;;;;-1.14;81.32;101642.76;124148;1099;104415;-82
2023/01/08 06:59:27;;;;;;;26.43;11.50;;;;;;;-1.17;81.63;101638.23;124028;1099;104319;-82
2023/01/08 07:01:58;;;;;;;32.77;12.20;;;;;;;-1.15;80.65;101649.59;124059;1099;104272;-81
2023/01/08 07:04:29;;;;;;;31.47;12.93;;;;;;;-1.16;80.85;101642.61;123932;1099;104303;-81
2023/01/08 07:07:01;;;;;;;29.23;13.03;;;;;;;-1.17;80.50;101647.59;124153;1099;104222;-83
2023/01/08 07:09:33;;;;;;;29.73;12.43;;;;;;;-1.17;80.83;101655.33;124092;1099;104389;-83
2023/01/08 07:12:04;;;;;;;29.23;12.63;;;;;;;-1.19;81.64;101652.59;123628;1099;104351;-82
2023/01/08 07:14:36;;;;;;;30.03;13.40;;;;;;;-1.21;80.50;101664.42;123877;1099;104351;-82
2023/01/08 07:17:07;;;;;;;29.40;13.37;;;;;;;-1.20;80.74;101670.47;123718;1099;104242;-81
2023/01/08 07:19:38;;;;;;;28.43;12.83;;;;;;;-1.18;81.31;101677.61;124077;1099;104270;-80
2023/01/08 07:22:10;;;;;;;27.73;11.93;;;;;;;-1.16;81.69;101675.19;123962;1098;104259;-81
2023/01/08 07:24:41;;;;;;;29.27;13.07;;;;;;;-1.18;80.54;101672.45;124174;1099;108219;-79
2023/01/08 07:27:12;;;;;;;28.83;12.70;;;;;;;-1.18;80.89;101677.61;124258;1099;104315;-82
2023/01/08 07:29:43;;;;;;;29.13;12.87;;;;;;;-1.17;80.88;101676.87;123986;1099;104235;-81
2023/01/08 07:32:15;;;;;;;28.03;12.20;;;;;;;-1.19;80.76;101678.36;123870;1099;104245;-83
2023/01/08 07:34:46;;;;;;;31.30;12.50;;;;;;;-1.22;81.19;101685.77;123862;1099;104488;-82
2023/01/08 07:37:17;;;;;;;32.73;14.03;;;;;;;-1.25;81.36;101675.16;123757;1099;104265;-82
2023/01/08 07:39:48;;;;;;;31.10;13.73;;;;;;;-1.28;81.30;101670.63;123957;1099;104367;-81
2023/01/08 07:42:20;;;;;;;29.50;13.70;;;;;;;-1.32;80.42;101677.88;124148;1099;104306;-82
2023/01/08 07:44:51;;;;;;;31.60;13.70;;;;;;;-1.30;79.95;101671.21;124313;1099;104242;-82
2023/01/08 07:47:22;;;;;;;31.17;13.23;;;;;;;-1.31;80.32;101674.53;124262;1099;104395;-83
2023/01/08 07:49:53;;;;;;;31.73;12.73;;;;;;;-1.33;81.11;101681.20;124197;1099;104261;-81
2023/01/08 07:52:25;;;;;;;33.37;13.40;;;;;;;-1.37;80.83;101676.48;124068;1099;104293;-82
2023/01/08 07:54:56;;;;;;;32.63;13.70;;;;;;;-1.39;80.42;101676.33;124027;1099;104293;-81
2023/01/08 07:57:29;;;;;;;31.13;13.83;;;;;;;-1.39;81.18;101675.42;124070;1099;104214;-77
2023/01/08 08:00:00;;;;;;;35.03;13.30;;;;;;;-1.40;80.63;101668.44;124188;1099;101916;-82
2023/01/08 08:02:32;;;;;;;34.10;13.63;;;;;;;-1.37;80.60;101674.84;123750;1099;104326;-81
2023/01/08 08:05:03;;;;;;;32.20;14.27;;;;;;;-1.33;81.30;101664.07;124001;1099;104321;-81
2023/01/08 08:07:35;;;;;;;27.90;12.50;;;;;;;-1.32;80.78;101665.91;124117;1099;104267;-81
2023/01/08 08:10:10;;;;;;;31.67;13.53;;;;;;;-1.34;81.12;101674.22;124065;1099;104280;-81
2023/01/08 08:12:44;;;;;;;31.67;12.87;;;;;;;-1.35;79.84;101672.42;124089;1099;104301;-82
2023/01/08 08:15:15;;;;;;;31.35;13.15;;;;;;;-1.33;80.12;101678.63;124195;1099;104376;-82
2023/01/08 08:17:48;;;;;;;28.40;12.57;;;;;;;-1.35;80.63;101688.77;124210;1099;104173;-81
2023/01/08 08:20:19;;;;;;;30.33;12.63;;;;;;;-1.33;81.00;101682.10;124121;1099;104245;-80
2023/01/08 08:22:50;;;;;;;28.37;12.60;;;;;;;-1.30;81.15;101691.81;124165;1099;104255;-81
2023/01/08 08:25:22;;;;;;;29.53;12.00;;;;;;;-1.28;80.42;101688.66;123996;1099;104329;-81
2023/01/08 08:27:56;;;;;;;30.10;13.07;;;;;;;-1.26;81.04;101693.96;124185;1099;104360;-82
2023/01/08 08:30:26;;;;;;;;;;;;;;;-1.31;80.71;101695.13;124152;1099;104274;-81
2023/01/08 08:33:00;;;;;;;31.50;12.60;;;;;;;-1.31;80.48;101695.13;124142;1099;104351;-82
2023/01/08 08:35:31;;;;;;;;;;;;;;;-1.31;80.26;101689.98;123868;1099;104284;-81
2023/01/08 08:38:02;;;;;;;34.47;13.37;;;;;;;-1.30;81.06;101691.81;124035;1099;104482;-83
2023/01/08 08:40:34;;;;;;;31.30;13.40;;;;;;;-1.28;80.60;101693.80;123963;1099;104277;-81
2023/01/08 08:43:05;;;;;;;33.83;13.70;;;;;;;-1.25;80.48;101697.44;123903;1099;104280;-81
2023/01/08 08:45:40;;;;;;;33.27;14.20;;;;;;;-1.27;80.52;101697.28;124099;1099;104264;-82
2023/01/08 08:48:11;;;;;;;31.30;13.47;;;;;;;-1.32;80.15;101693.33;124280;1099;104185;-81
2023/01/08 08:50:43;;;;;;;27.87;11.73;;;;;;;-1.38;80.01;101696.18;124141;1098;104338;-82
2023/01/08 08:53:14;;;;;;;28.55;12.60;;;;;;;-1.41;80.44;101693.29;124053;1099;104747;-81
2023/01/08 08:55:45;;;;;;;35.20;13.70;;;;;;;-1.42;80.92;101686.31;124192;1099;104265;-80
2023/01/08 08:58:17;;;;;;;30.60;12.37;;;;;;;-1.47;80.76;101677.22;123861;1099;104267;-82
2023/01/08 09:00:48;;;;;;;29.33;12.83;;;;;;;-1.49;80.92;101681.31;124123;1099;104341;-80
2023/01/08 09:03:19;;;;;;;29.27;12.27;;;;;;;-1.55;79.59;101676.42;124186;1099;104328;-82
2023/01/08 09:05:50;;;;;;;27.83;12.27;;;;;;;-1.57;80.19;101672.80;124033;1099;104312;-82
2023/01/08 09:08:22;;;;;;;30.87;12.47;;;;;;;-1.55;80.07;101673.85;124015;1099;104296;-82
2023/01/08 09:10:53;;;;;;;27.67;12.57;;;;;;;-1.54;80.96;101667.96;123994;1099;104335;-82
2023/01/08 09:13:24;;;;;;;29.70;12.70;;;;;;;-1.53;80.00;101663.71;124114;1099;104265;-82
2023/01/08 09:15:57;;;;;;;27.70;11.80;;;;;;;-1.51;80.38;101660.55;124029;1099;104306;-81
2023/01/08 09:18:28;;;;;;;30.60;13.37;;;;;;;-1.48;80.94;101655.72;124043;1099;104223;-82
2023/01/08 09:21:03;;;;;;;27.33;11.83;;;;;;;-1.45;81.05;101650.88;124052;1099;104293;-82
2023/01/08 09:23:35;;;;;;;28.80;11.77;;;;;;;-1.41;80.10;101646.05;124179;1099;104339;-81
2023/01/08 09:26:07;;;;;;;28.73;12.43;;;;;;;-1.42;80.36;101657.09;124000;1099;104268;-81
2023/01/08 09:28:38;;;;;;;29.60;11.67;;;;;;;-1.43;80.08;101657.83;124037;1099;104156;-82
2023/01/08 09:31:10;;;;;;;28.03;12.00;;;;;;;-1.41;80.81;101646.05;124212;1099;104297;-82
2023/01/08 09:33:41;;;;;;;28.43;11.93;;;;;;;-1.41;80.07;101654.67;124165;1099;104262;-82
2023/01/08 09:36:13;;;;;;;27.47;12.27;;;;;;;-1.45;80.48;101650.88;124039;1099;104293;-82
2023/01/08 09:38:45;;;;;;;26.50;11.83;;;;;;;-1.45;81.01;101656.03;124124;1099;104281;-82
2023/01/08 09:41:22;;;;;;;27.10;11.33;;;;;;;-1.41;81.00;101653.77;123865;1099;104393;-82
2023/01/08 09:43:56;;;;;;;25.87;11.20;;;;;;;-1.38;81.25;101654.08;123970;1099;104280;-82
2023/01/08 09:46:29;;;;;;;25.50;11.38;;;;;;;-1.39;80.59;101650.58;124105;1099;104232;-80
2023/01/08 09:49:04;;;;;;;25.03;10.03;;;;;;;-1.37;80.76;101643.94;124004;1099;104236;-80
2023/01/08 09:51:38;;;;;;;28.23;11.13;;;;;;;-1.41;81.05;101640.89;124149;1099;104235;-82
2023/01/08 09:54:16;;;;;;;27.45;10.48;;;;;;;-1.45;81.54;101648.31;124137;1099;104232;-83
2023/01/08 09:56:47;;;;;;;26.37;9.93;;;;;;;-1.47;81.02;101641.17;124116;1099;104351;-83
2023/01/08 09:59:20;;;;;;;23.80;9.33;;;;;;;-1.51;81.00;101633.87;124075;1099;104613;-82
2023/01/08 10:01:52;;;;;;;24.40;10.13;;;;;;;-1.54;80.69;101636.14;124202;1099;104235;-81
2023/01/08 10:04:25;;;;;;;24.83;10.20;;;;;;;-1.57;80.78;101639.33;124140;1099;104738;-82
2023/01/08 10:07:00;;;;;;;24.80;10.67;;;;;;;-1.59;81.42;101622.83;124202;1099;104233;-82
2023/01/08 10:09:33;;;;;;;26.20;10.57;;;;;;;-1.60;81.18;101628.72;124132;1099;104242;-80
2023/01/08 10:12:07;;;;;;;25.70;10.50;;;;;;;-1.62;81.41;101630.23;124197;1099;104347;-83
2023/01/08 10:14:46;;;;;;;27.42;12.10;;;;;;;-1.68;81.10;101620.22;124130;1098;104280;-82
2023/01/08 10:17:27;;;;;;;28.53;11.40;;;;;;;-1.67;80.83;101619.47;124076;1099;104264;-81
2023/01/08 10:19:59;;;;;;;24.50;10.57;;;;;;;-1.62;81.85;101625.09;124054;1099;104290;-82
2023/01/08 10:22:33;;;;;;;22.97;10.20;;;;;;;-1.60;81.18;101621.00;124095;1099;104305;-82
2023/01/08 10:25:15;;;;;;;23.80;10.17;;;;;;;-1.60;80.66;101620.10;124014;1098;104225;-82
2023/01/08 10:27:51;;;;;;;24.70;11.50;;;;;;;-1.61;81.45;101616.59;124133;1099;104235;-83
2023/01/08 10:30:28;;;;;;;25.73;9.70;;;;;;;-1.63;82.08;101612.97;124385;1099;104220;-81
2023/01/08 10:33:05;;;;;;;25.90;10.90;;;;;;;-1.65;80.58;101609.33;123902;1099;104335;-81
2023/01/08 10:35:38;;;;;;;23.83;9.57;;;;;;;-1.65;81.46;101607.66;124351;1099;104196;-80
2023/01/08 10:38:28;;;;;;;25.60;9.80;;;;;;;-1.66;80.67;101598.11;124192;1099;104236;-83
2023/01/08 10:41:01;;;;;;;26.90;10.63;;;;;;;-1.66;81.01;101607.50;124095;1099;104235;-83
2023/01/08 10:43:36;;;;;;;24.90;10.67;;;;;;;-1.67;80.34;101604.03;124092;1099;104271;-81
2023/01/08 10:46:17;;;;;;;25.37;10.70;;;;;;;-1.63;81.21;101603.56;123968;1099;104360;-81
2023/01/08 10:48:51;;;;;;;26.10;11.13;;;;;;;-1.61;81.09;101601.15;124236;1099;107652;-80
2023/01/08 10:51:25;;;;;;;26.47;10.57;;;;;;;-1.57;80.85;101593.00;124278;1099;104273;-80
2023/01/08 10:53:59;;;;;;;24.52;9.53;;;;;;;-1.56;80.73;101601.62;124225;1099;104198;-81
2023/01/08 10:56:41;;;;;;;22.10;9.10;;;;;;;-1.55;80.27;101591.48;124238;1099;104290;-82
2023/01/08 10:59:22;;;;;;;26.57;10.17;;;;;;;-1.53;80.60;101589.95;123905;1099;118836;-81
2023/01/08 11:01:55;;;;;;;25.40;9.13;;;;;;;-1.56;81.10;101593.89;123891;1099;104262;-81
2023/01/08 11:04:32;;;;;;;21.37;8.75;;;;;;;-1.63;79.74;101584.66;124153;1098;104357;-80
2023/01/08 11:07:07;;;;;;;24.57;9.10;;;;;;;-1.66;80.05;101592.95;124038;1099;104349;-82
2023/01/08 11:09:46;;;;;;;22.47;9.27;;;;;;;-1.67;80.28;101586.02;124028;1098;104242;-81
2023/01/08 11:12:38;;;;;;;22.93;9.43;;;;;;;-1.64;80.65;101587.97;124217;1099;104175;-81
2023/01/08 11:15:34;;;;;;;23.23;8.90;;;;;;;-1.64;80.33;101594.05;124057;1099;104235;-82
2023/01/08 11:18:17;;;;;;;21.10;9.73;;;;;;;-1.64;80.52;101581.18;124159;1099;104386;-82
2023/01/08 11:20:49;;;;;;;22.73;9.17;;;;;;;-1.66;79.89;101589.48;124095;1099;104226;-82
2023/01/08 11:23:23;;;;;;;24.57;9.73;;;;;;;-1.65;80.37;101588.74;124289;1099;104297;-84